Latest Weather Observations for Yanakie

IDV60801

Issued at 7:42 am EST Monday 20 August 2018 (issued every 10 minutes, with the page automatically refreshed every 10 minutes)

About weather observations | Map of weather stations | Latest weather observations for VIC | Other Formats
Station Details ID: 085301 Name: YANAKIE Lat: -38.81 Lon: 146.19 Height: 13.3 m
Data from the previous 72 hours. | See also: Recent months at Yanakie
Date/Time
EST
Temp
°C
App
Temp
°C
Dew
Point
°C
Rel
Hum
%
Delta-T
°C
Wind Press
QNH
hPa
Press
MSL
hPa
Rain since
9am
mm
Dir  Spd
km/h
Gust
km/h
Spd
kts
Gust
kts
20/07:30am 6.8 4.0 5.3 90 0.7 W 9 15 5 8 1022.5 1022.5 1.4
20/07:00am 6.1 3.6 4.6 90 0.6 W 7 11 4 6 1022.3 1022.3 1.4
20/06:30am 7.0 4.3 5.5 90 0.7 WNW 9 11 5 6 1022.1 1022.1 1.4
20/06:00am 7.3 3.5 5.6 89 0.8 WSW 15 20 8 11 1022.3 1022.3 0.8
20/05:30am 7.3 3.6 4.4 82 1.3 W 13 17 7 9 1022.2 1022.2 0.0
20/05:00am 7.1 3.4 4.4 83 1.2 W 13 20 7 11 1022.2 1022.2 0.0
20/04:30am 8.4 3.9 4.0 74 1.9 SW 17 26 9 14 1022.2 1022.2 0.0
20/04:00am 8.2 3.7 4.0 75 1.8 SW 17 22 9 12 1022.3 1022.3 0.0
20/03:30am 8.6 3.0 3.2 69 2.3 SW 22 30 12 16 1022.5 1022.5 0.0
20/03:00am 8.3 3.3 3.8 73 1.9 SW 19 24 10 13 1022.8 1022.8 0.0
20/02:30am 8.5 3.6 4.1 74 1.9 SW 19 24 10 13 1023.2 1023.2 0.0
20/02:00am 8.4 2.4 3.5 71 2.1 SW 24 32 13 17 1023.4 1023.4 0.0
20/01:30am 8.7 2.8 3.7 71 2.2 SW 24 32 13 17 1023.8 1023.8 0.0
20/01:00am 8.2 2.3 3.7 73 1.9 SW 24 33 13 18 1023.5 1023.5 0.0
20/12:30am 8.9 2.1 3.1 67 2.5 SW 28 41 15 22 1023.6 1023.6 0.0
20/12:00am 8.4 2.4 3.5 71 2.1 SW 24 35 13 19 1023.6 1023.6 0.0
 
Date/Time
EST
Temp
°C
App
Temp
°C
Dew
Point
°C
Rel
Hum
%
Delta-T
°C
Wind Press
QNH
hPa
Press
MSL
hPa
Rain since
9am
mm
Dir  Spd
km/h
Gust
km/h
Spd
kts
Gust
kts
19/11:30pm 8.5 2.4 2.9 68 2.4 SW 24 33 13 18 1023.7 1023.7 0.0
19/11:00pm 8.5 2.0 2.9 68 2.4 SSW 26 37 14 20 1023.8 1023.8 0.0
19/10:30pm 8.8 1.6 3.0 67 2.5 SSW 30 41 16 22 1023.7 1023.7 0.0
19/10:00pm 8.8 1.0 2.8 66 2.5 SW 33 46 18 25 1023.7 1023.7 0.0
19/09:30pm 8.9 0.8 3.5 69 2.3 SW 35 46 19 25 1023.6 1023.6 0.0
19/09:00pm 8.8 0.6 2.8 66 2.5 SW 35 44 19 24 1023.4 1023.4 0.0
19/08:30pm 9.1 1.6 3.7 69 2.3 SW 32 43 17 23 1023.1 1023.1 0.0
19/08:00pm 8.8 -0.2 2.2 63 2.7 SW 39 50 21 27 1022.9 1022.9 0.0
19/07:30pm 8.8 -0.7 4.0 72 2.1 SW 43 59 23 32 1022.6 1022.6 0.0
19/07:23pm 9.1 0.0 3.9 70 2.3 SW 41 59 22 32 1022.7 1022.7 0.0
19/07:00pm 9.0 -0.6 3.6 69 2.3 SW 43 56 23 30 1022.5 1022.5 0.0
19/06:30pm 9.5 0.1 2.4 61 3.0 SW 41 54 22 29 1022.1 1022.1 0.0
19/06:00pm 9.5 1.2 4.1 69 2.4 SW 37 52 20 28 1021.6 1021.6 0.0
19/05:30pm 9.6 -0.1 3.8 67 2.5 SW 44 59 24 32 1021.2 1021.2 0.0
19/05:16pm 9.4 -0.3 3.8 68 2.4 SW 44 63 24 34 1021.0 1021.0 0.0
19/05:00pm 9.9 0.7 3.4 64 2.8 SW 41 57 22 31 1020.8 1020.8 0.0
19/04:30pm 10.2 0.1 3.9 65 2.8 SW 46 59 25 32 1020.5 1020.5 0.0
19/04:00pm 10.4 0.8 4.3 66 2.7 SW 44 57 24 31 1020.5 1020.5 0.0
19/03:30pm 10.8 1.3 4.9 67 2.7 SW 44 57 24 31 1020.0 1020.0 0.0
19/03:00pm 10.8 0.8 4.3 64 2.9 SW 46 65 25 35 1019.6 1019.6 0.0
19/02:55pm 10.9 1.0 4.6 65 2.8 SW 46 65 25 35 1019.5 1019.5 0.0
19/02:30pm 10.7 1.4 5.7 71 2.3 SW 44 61 24 33 1019.2 1019.2 0.0
19/02:00pm 11.3 2.0 6.0 70 2.5 SW 44 57 24 31 1018.6 1018.6 0.0
19/01:46pm 11.1 1.7 5.2 67 2.7 SW 44 63 24 34 1018.4 1018.4 0.0
19/01:30pm 11.1 1.3 5.2 67 2.7 SW 46 59 25 32 1018.3 1018.3 0.0
19/01:00pm 10.9 0.9 4.1 63 3.0 SSW 46 61 25 33 1018.1 1018.1 0.0
19/12:49pm 10.9 1.0 4.8 66 2.8 SW 46 65 25 35 1018.0 1018.0 0.0
19/12:30pm 11.0 0.1 5.5 69 2.5 SW 52 69 28 37 1017.7 1017.7 0.0
19/12:00pm 10.8 0.2 4.9 67 2.7 SSW 50 70 27 38 1017.2 1017.2 0.0
19/11:49am 11.0 2.4 6.6 74 2.1 SSW 41 61 22 33 1016.9 1016.9 0.0
19/11:30am 11.0 1.8 6.4 73 2.2 SSW 44 63 24 34 1016.5 1016.5 0.0
19/11:14am 10.7 1.4 6.1 73 2.1 SSW 44 69 24 37 1016.3 1016.3 0.0
19/11:00am 10.8 1.5 5.8 71 2.3 SSW 44 59 24 32 1015.9 1015.9 0.0
19/10:30am 10.4 -0.1 5.8 73 2.1 SSW 50 69 27 37 1014.8 1014.8 0.0
19/10:17am 10.3 0.5 5.5 72 2.2 SSW 46 67 25 36 1014.5 1014.5 0.0
19/10:00am 10.5 0.1 5.9 73 2.1 SSW 50 69 27 37 1014.1 1014.1 0.0
19/09:47am 10.2 -0.6 6.2 76 1.9 SSW 52 70 28 38 1013.7 1013.7 0.0
19/09:30am 9.6 -2.1 5.4 75 1.9 SW 56 70 30 38 1013.6 1013.6 0.0
19/09:00am 9.4 -2.2 5.6 77 1.7 SW 56 76 30 41 1013.1 1013.1 7.6
19/08:44am 9.4 -2.5 5.2 75 1.9 SW 57 80 31 43 1012.5 1012.5 7.6
19/08:30am 9.2 -2.6 5.8 79 1.6 SW 57 74 31 40 1012.3 1012.3 7.6
19/08:06am 9.2 -2.0 6.1 81 1.4 SW 54 74 29 40 1011.8 1011.8 7.6
19/08:00am 8.9 -2.2 6.2 83 1.2 SW 54 70 29 38 1011.8 1011.8 7.6
19/07:30am 7.1 -3.8 5.6 90 0.7 SW 52 82 28 44 1011.6 1011.6 7.4
19/07:00am 9.1 -0.3 5.5 78 1.6 WSW 44 65 24 35 1010.9 1010.9 6.4
19/06:30am 7.9 -2.8 4.5 79 1.5 WSW 50 78 27 42 1010.7 1010.7 6.4
19/06:11am 9.2 -0.7 4.6 73 2.0 SW 46 67 25 36 1010.6 1010.6 6.4
19/06:00am 8.9 -1.4 4.7 75 1.9 SW 48 63 26 34 1010.5 1010.5 6.4
19/05:34am 8.9 -0.2 5.8 81 1.4 SW 43 65 23 35 1009.9 1009.9 6.4
19/05:30am 8.7 -0.7 5.6 81 1.4 SW 44 57 24 31 1009.9 1009.9 6.4
19/05:00am 7.9 -1.8 5.7 86 1.0 SW 46 67 25 36 1010.0 1010.0 5.8
19/04:30am 8.9 -2.6 4.5 74 1.9 SW 54 72 29 39 1009.4 1009.4 5.4
19/04:14am 8.4 -1.2 6.2 86 1.0 SW 46 69 25 37 1009.2 1009.2 5.4
19/04:00am 7.6 -1.9 5.1 84 1.1 SW 44 69 24 37 1009.2 1009.2 5.4
19/03:30am 8.2 -2.8 4.8 79 1.5 SW 52 76 28 41 1008.9 1008.9 5.0
19/03:17am 9.1 -2.0 4.5 73 2.0 SW 52 89 28 48 1008.8 1008.8 5.0
19/03:00am 9.0 0.1 5.0 76 1.8 SW 41 63 22 34 1008.2 1008.2 5.0
19/02:39am 9.2 0.6 4.6 73 2.0 WSW 39 65 21 35 1008.1 1008.1 5.0
19/02:30am 9.2 1.0 5.0 75 1.9 WSW 37 54 20 29 1008.2 1008.2 5.0
19/02:00am 8.4 1.6 5.3 81 1.4 SW 30 43 16 23 1008.4 1008.4 5.0
19/01:31am 7.7 0.9 6.8 94 0.4 SW 32 52 17 28 1008.5 1008.5 4.4
19/01:30am 7.5 0.6 6.6 94 0.4 SW 32 44 17 24 1008.4 1008.4 4.2
19/01:26am 7.0 -0.5 6.1 94 0.4 SW 35 56 19 30 1008.3 1008.3 4.2
19/01:15am 7.4 -1.2 4.5 82 1.3 WSW 39 56 21 30 1008.5 1008.5 3.8
19/01:00am 7.5 -1.8 4.8 83 1.2 WSW 43 80 23 43 1007.7 1007.7 3.2
19/12:52am 8.9 0.3 4.7 75 1.9 WSW 39 80 21 43 1007.8 1007.8 2.8
19/12:30am 8.5 0.5 3.8 72 2.0 WSW 35 48 19 26 1007.6 1007.6 2.8
19/12:15am 8.5 1.1 4.9 78 1.6 WSW 33 59 18 32 1007.5 1007.5 2.8
19/12:00am 8.9 1.1 4.9 76 1.8 WSW 35 52 19 28 1007.4 1007.4 2.8
 
Date/Time
EST
Temp
°C
App
Temp
°C
Dew
Point
°C
Rel
Hum
%
Delta-T
°C
Wind Press
QNH
hPa
Press
MSL
hPa
Rain since
9am
mm
Dir  Spd
km/h
Gust
km/h
Spd
kts
Gust
kts
18/11:30pm 8.4 2.4 5.3 81 1.4 W 26 37 14 20 1007.4 1007.4 2.8
18/11:00pm 7.9 -0.2 5.2 83 1.2 W 37 50 20 27 1007.3 1007.3 2.6
18/10:31pm 8.4 2.0 5.0 79 1.5 W 28 50 15 27 1007.1 1007.1 2.4
18/10:30pm 8.6 2.6 5.4 80 1.4 W 26 44 14 24 1007.2 1007.2 2.4
18/10:00pm 7.0 1.2 4.5 84 1.1 WNW 24 28 13 15 1007.3 1007.3 2.4
18/09:33pm 7.4 -0.1 4.4 81 1.3 W 33 54 18 29 1007.0 1007.0 2.4
18/09:30pm 7.3 -0.1 4.1 80 1.4 W 32 43 17 23 1007.0 1007.0 2.4
18/09:12pm 7.8 1.0 5.3 84 1.1 WSW 30 63 16 34 1007.3 1007.3 2.2
18/09:00pm 8.4 2.8 5.3 81 1.4 W 24 32 13 17 1007.0 1007.0 1.8
18/08:30pm 7.6 2.4 5.4 86 1.0 W 22 30 12 16 1006.9 1006.9 1.8
18/08:00pm 7.3 -0.4 5.3 87 0.9 W 35 69 19 37 1006.8 1006.8 1.6
18/07:50pm 6.9 0.5 5.2 89 0.7 WNW 28 65 15 35 1006.7 1006.7 1.4
18/07:30pm 6.7 -0.1 5.2 90 0.7 WNW 30 41 16 22 1006.5 1006.5 1.4
18/07:00pm 7.3 -0.1 3.9 79 1.5 NW 32 50 17 27 1006.2 1006.2 0.4
18/06:30pm 8.3 0.7 3.8 73 1.9 WNW 33 44 18 24 1005.8 1005.8 0.4
18/06:00pm 8.4 1.0 4.2 75 1.8 WNW 32 50 17 27 1005.7 1005.7 0.4
18/05:56pm 8.4 1.0 4.2 75 1.8 WNW 32 50 17 27 1005.7 1005.7 0.4
18/05:30pm 8.5 1.2 4.7 77 1.7 WNW 32 43 17 23 1005.6 1005.6 0.4
18/05:00pm 9.1 1.2 4.1 71 2.2 WNW 35 44 19 24 1005.2 1005.2 0.4
18/04:50pm 9.1 0.9 4.7 74 2.0 WNW 37 57 20 31 1005.0 1005.0 0.4
18/04:30pm 9.7 0.8 5.1 73 2.1 WNW 41 54 22 29 1004.9 1004.9 0.4
18/04:00pm 9.6 1.6 5.8 77 1.7 WNW 37 56 20 30 1005.0 1005.0 0.4
18/03:30pm 9.5 0.6 5.3 75 1.9 W 41 65 22 35 1004.9 1004.9 0.4
18/03:00pm 10.7 1.6 6.1 73 2.1 WNW 43 63 23 34 1004.7 1004.7 0.4
18/02:41pm 10.0 3.0 6.2 77 1.8 WNW 32 50 17 27 1004.6 1004.6 0.4
18/02:30pm 8.4 0.8 5.7 83 1.2 WNW 35 48 19 26 1004.7 1004.7 0.4
18/02:00pm 9.8 1.2 6.5 80 1.5 W 41 59 22 32 1004.7 1004.7 0.2
18/01:48pm 9.9 1.0 5.3 73 2.1 W 41 69 22 37 1004.7 1004.7 0.0
18/01:30pm 11.9 2.6 5.1 63 3.1 WNW 43 57 23 31 1004.4 1004.4 0.0
18/01:11pm 12.0 2.8 5.4 64 3.1 WNW 43 61 23 33 1004.4 1004.4 0.0
18/01:00pm 11.8 2.7 5.9 67 2.8 WNW 43 57 23 31 1004.6 1004.6 0.0
18/12:47pm 11.4 2.6 5.5 67 2.7 WNW 41 59 22 32 1004.7 1004.7 0.0
18/12:30pm 10.9 3.4 6.1 72 2.2 WNW 35 48 19 26 1005.1 1005.1 0.0
18/12:10pm 11.1 3.8 5.6 69 2.5 WNW 33 57 18 31 1005.2 1005.2 0.0
18/12:00pm 10.8 3.5 5.6 70 2.4 WNW 33 44 18 24 1005.5 1005.5 0.0
18/11:30am 11.2 4.2 6.1 71 2.4 WNW 32 46 17 25 1005.5 1005.5 0.0
18/11:00am 11.5 4.1 6.8 73 2.2 WNW 35 50 19 27 1005.9 1005.9 0.0
18/10:30am 11.3 4.4 7.2 76 2.0 NW 33 46 18 25 1005.7 1005.7 0.0
18/10:00am 11.3 5.1 8.0 80 1.6 NW 30 43 16 23 1005.9 1005.9 0.0
18/09:30am 10.6 4.7 7.5 81 1.5 NW 28 41 15 22 1005.9 1005.9 0.0
18/09:00am 9.7 4.9 7.3 85 1.1 WNW 22 32 12 17 1005.9 1005.9 2.6
18/08:30am 8.9 5.4 7.0 88 0.9 W 15 20 8 11 1006.2 1006.2 2.6
18/08:00am 8.9 4.0 7.0 88 0.9 WNW 22 33 12 18 1005.9 1005.9 2.2
18/07:30am 8.4 4.5 6.9 90 0.7 NW 17 22 9 12 1005.6 1005.6 2.2
18/07:00am 8.5 4.2 7.1 91 0.7 NW 19 24 10 13 1005.5 1005.5 2.2
18/06:30am 8.4 3.9 6.9 90 0.7 NW 20 26 11 14 1005.3 1005.3 2.2
18/06:00am 8.6 3.4 7.2 91 0.7 WNW 24 28 13 15 1005.0 1005.0 2.2
18/05:30am 8.1 2.4 6.6 90 0.7 NW 26 44 14 24 1005.0 1005.0 2.0
18/05:00am 8.6 1.7 6.4 86 1.0 WNW 32 48 17 26 1004.9 1004.9 1.0
18/04:30am 9.2 2.9 7.2 87 0.9 NW 30 41 16 22 1004.6 1004.6 0.8
18/04:00am 9.2 3.3 7.3 88 0.9 NW 28 43 15 23 1004.5 1004.5 0.8
18/03:30am 9.6 3.6 7.2 85 1.1 WNW 28 37 15 20 1004.6 1004.6 0.8
18/03:00am 9.9 2.9 6.8 81 1.5 WNW 33 46 18 25 1004.3 1004.3 0.6
18/02:30am 10.5 3.0 6.5 76 1.9 WNW 35 50 19 27 1004.3 1004.3 0.4
18/02:08am 11.0 2.0 6.2 72 2.2 NW 43 69 23 37 1004.2 1004.2 0.2
18/02:00am 11.7 3.3 5.8 67 2.8 NW 39 57 21 31 1004.1 1004.1 0.0
18/01:45am 12.6 4.8 4.8 59 3.6 NW 35 56 19 30 1003.8 1003.8 0.0
18/01:30am 12.8 5.8 4.0 55 4.0 NW 30 46 16 25 1003.9 1003.9 0.0
18/01:00am 12.2 5.9 3.9 57 3.7 NNW 26 43 14 23 1004.3 1004.3 0.0
18/12:30am 12.1 6.1 3.6 56 3.8 NNW 24 35 13 19 1004.4 1004.4 0.0
18/12:00am 11.3 5.7 3.6 59 3.4 NNW 22 35 12 19 1004.9 1004.9 0.0
 
Date/Time
EST
Temp
°C
App
Temp
°C
Dew
Point
°C
Rel
Hum
%
Delta-T
°C
Wind Press
QNH
hPa
Press
MSL
hPa
Rain since
9am
mm
Dir  Spd
km/h
Gust
km/h
Spd
kts
Gust
kts
17/11:30pm 11.7 5.4 3.5 57 3.6 NNW 26 39 14 21 1005.3 1005.3 0.0
17/11:00pm 11.6 4.9 3.6 58 3.6 N 28 43 15 23 1005.8 1005.8 0.0
17/10:50pm 11.4 4.7 3.7 59 3.4 N 28 48 15 26 1006.0 1006.0 0.0
17/10:30pm 11.4 5.5 3.7 59 3.4 N 24 39 13 21 1006.6 1006.6 0.0
17/10:00pm 10.8 5.6 3.6 61 3.2 NNW 20 32 11 17 1007.2 1007.2 0.0
17/09:30pm 10.8 5.6 3.6 61 3.2 NNW 20 30 11 16 1007.7 1007.7 0.0
17/09:00pm 11.2 4.8 3.3 58 3.5 NNW 26 39 14 21 1008.0 1008.0 0.0
17/08:30pm 10.8 5.2 3.6 61 3.2 NNW 22 33 12 18 1008.4 1008.4 0.0
17/08:00pm 10.4 5.3 3.9 64 2.9 NNW 20 30 11 16 1008.6 1008.6 0.0
17/07:30pm 10.7 5.6 4.2 64 2.9 NNW 20 32 11 17 1008.5 1008.5 0.0
17/07:00pm 10.8 5.9 4.3 64 2.9 NNW 19 32 10 17 1008.6 1008.6 0.0
17/06:30pm 10.8 5.7 4.0 63 3.0 NNW 20 26 11 14 1008.8 1008.8 0.0
17/06:00pm 11.7 5.9 4.2 60 3.4 NNW 24 35 13 19 1008.6 1008.6 0.0
17/05:30pm 12.2 7.2 4.4 59 3.5 NNW 20 28 11 15 1008.6 1008.6 0.0
17/05:00pm 12.6 9.0 5.1 60 3.5 NNW 13 20 7 11 1008.8 1008.8 0.0
17/04:30pm 13.3 9.5 5.9 61 3.5 NW 15 22 8 12 1009.0 1009.0 0.0
17/04:00pm 13.8 9.0 5.4 57 4.0 NW 20 28 11 15 1009.0 1009.0 0.0
17/03:30pm 14.1 8.1 5.5 56 4.1 NW 26 39 14 21 1009.0 1009.0 0.0
17/03:00pm 14.0 6.9 5.4 56 4.1 NW 32 44 17 24 1009.2 1009.2 0.0
17/02:30pm 13.4 6.2 5.8 60 3.6 NW 33 44 18 24 1009.2 1009.2 0.0
17/02:00pm 13.3 6.2 5.5 59 3.7 NW 32 43 17 23 1009.4 1009.4 0.0
17/01:30pm 13.9 7.2 5.8 58 3.8 WNW 30 39 16 21 1009.7 1009.7 0.0
17/01:00pm 13.5 7.0 6.4 62 3.4 WNW 30 43 16 23 1010.2 1010.2 0.0
17/12:30pm 13.3 6.9 6.9 65 3.1 WNW 30 43 16 23 1010.7 1010.7 0.0
17/12:00pm 12.9 6.5 6.9 67 2.9 WNW 30 39 16 21 1011.0 1011.0 0.0
17/11:30am 12.4 5.3 6.5 67 2.8 WNW 33 43 18 23 1011.5 1011.5 0.0
17/11:00am 12.4 6.8 7.3 71 2.5 NW 26 35 14 19 1011.8 1011.8 0.0
17/10:30am 11.7 6.3 6.4 70 2.5 NW 24 33 13 18 1012.0 1012.0 0.0
17/10:00am 11.1 5.7 6.5 73 2.2 NW 24 35 13 19 1012.1 1012.1 0.0
17/09:30am 10.2 5.4 5.8 74 2.0 NW 20 26 11 14 1012.6 1012.6 0.0
17/09:00am 9.6 4.4 5.6 76 1.8 NW 22 30 12 16 1012.7 1012.7 2.4
17/08:30am 8.3 3.6 5.1 80 1.4 NW 19 24 10 13 1012.7 1012.7 2.4
17/08:00am 7.7 3.6 4.5 80 1.4 NW 15 19 8 10 1012.6 1012.6 2.4

Other Formats:

Comma delimited format used in spreadsheet applications
http://www.bom.gov.au/fwo/IDV60801/IDV60801.94911.axf

JavaScript Object Notation format (JSON) in row-major order
http://www.bom.gov.au/fwo/IDV60801/IDV60801.94911.json